Time;durP1;ratioP1;P1;durP2;ratioP2;P2;SDS_P1;SDS_P2;PMS_P1;PMS_P2;Temp;Humidity;BMP_temperature;BMP_pressure;BME280_temperature;BME280_humidity;BME280_pressure;Samples;Min_cycle;Max_cycle;Signal;HPM_P1;HPM_P2
2023/05/31 00:02:20;;;;;;;7.07;4.95;;;16.60;73.00;;;;;;5114980;28;20036;-80
2023/05/31 00:04:45;;;;;;;6.75;4.50;;;16.60;73.20;;;;;;5114896;28;20024;-79
2023/05/31 00:07:14;;;;;;;6.15;4.28;;;16.50;73.30;;;;;;5115966;28;20429;-80
2023/05/31 00:09:40;;;;;;;6.72;4.25;;;16.50;73.40;;;;;;5115463;28;20044;-80
2023/05/31 00:12:06;;;;;;;5.75;4.15;;;16.50;73.50;;;;;;5114700;28;20017;-80
2023/05/31 00:14:32;;;;;;;8.20;4.32;;;16.50;73.60;;;;;;5114675;28;20089;-79
2023/05/31 00:16:57;;;;;;;6.50;4.45;;;16.50;73.70;;;;;;5097684;28;20069;-79
2023/05/31 00:19:23;;;;;;;6.05;4.20;;;16.50;74.00;;;;;;5114770;28;20111;-79
2023/05/31 00:21:48;;;;;;;6.97;4.38;;;16.40;73.80;;;;;;5114618;28;20058;-80
2023/05/31 00:24:16;;;;;;;6.60;4.55;;;16.40;74.10;;;;;;5114507;28;20048;-79
2023/05/31 00:26:42;;;;;;;7.47;4.88;;;16.40;74.30;;;;;;5114337;28;20020;-79
2023/05/31 00:29:07;;;;;;;5.88;4.22;;;16.30;74.30;;;;;;5115419;28;20024;-80
2023/05/31 00:31:33;;;;;;;6.43;4.07;;;16.40;74.50;;;;;;5115533;28;20076;-79
2023/05/31 00:33:59;;;;;;;6.07;4.50;;;16.30;74.50;;;;;;5115269;28;20028;-80
2023/05/31 00:36:24;;;;;;;5.93;4.30;;;16.30;74.50;;;;;;5114251;28;20027;-80
2023/05/31 00:38:50;;;;;;;6.18;4.40;;;16.30;74.60;;;;;;5115363;28;20032;-80
2023/05/31 00:41:16;;;;;;;6.85;4.32;;;16.30;74.90;;;;;;5114940;28;20032;-80
2023/05/31 00:43:43;;;;;;;6.03;4.00;;;16.30;74.90;;;;;;5115282;28;20031;-80
2023/05/31 00:46:29;;;;;;;6.60;4.05;;;16.20;75.00;;;;;;5115014;28;20015;-79
2023/05/31 00:48:55;;;;;;;6.55;4.22;;;16.20;75.00;;;;;;5115014;28;20019;-80
2023/05/31 00:51:22;;;;;;;7.53;4.75;;;16.20;75.20;;;;;;5114979;28;20024;-79
2023/05/31 00:53:48;;;;;;;8.93;4.57;;;16.20;75.30;;;;;;5113908;28;20023;-80
2023/05/31 00:56:15;;;;;;;7.22;4.38;;;16.20;75.50;;;;;;5114846;28;20065;-79
2023/05/31 00:58:41;;;;;;;5.50;4.32;;;16.10;75.70;;;;;;5096914;28;20035;-79
2023/05/31 01:01:08;;;;;;;7.13;3.97;;;16.10;75.80;;;;;;5114803;28;20024;-79
2023/05/31 01:03:34;;;;;;;5.60;4.00;;;16.10;75.80;;;;;;5114760;28;20025;-79
2023/05/31 01:06:00;;;;;;;8.40;4.50;;;16.10;75.90;;;;;;5114608;28;20027;-80
2023/05/31 01:08:26;;;;;;;6.57;3.90;;;16.10;76.20;;;;;;5114686;28;20023;-79
2023/05/31 01:10:56;;;;;;;7.10;4.10;;;16.00;76.20;;;;;;5096775;28;20046;-79
2023/05/31 01:13:51;;;;;;;6.10;4.10;;;16.00;76.20;;;;;;5114589;28;20372;-79
2023/05/31 01:16:30;;;;;;;8.23;4.30;;;16.00;76.30;;;;;;5114406;28;20044;-79
2023/05/31 01:19:02;;;;;;;7.72;3.97;;;16.00;76.30;;;;;;5114526;28;20080;-80
2023/05/31 01:22:14;;;;;;;5.75;4.10;;;16.00;76.50;;;;;;5112842;28;20027;-79
2023/05/31 01:25:15;;;;;;;7.15;4.15;;;16.00;76.40;;;;;;5103252;28;20059;-80
2023/05/31 01:27:43;;;;;;;6.60;4.00;;;15.90;76.70;;;;;;5114492;28;20027;-79
2023/05/31 01:30:10;;;;;;;7.95;4.25;;;15.90;76.90;;;;;;5114278;28;20039;-80
2023/05/31 01:32:37;;;;;;;7.10;4.63;;;15.90;77.00;;;;;;5114240;28;20046;-80
2023/05/31 01:35:03;;;;;;;7.57;4.60;;;15.80;77.10;;;;;;5114061;28;20433;-79
2023/05/31 01:37:29;;;;;;;8.50;4.78;;;15.80;77.30;;;;;;5113104;28;20028;-79
2023/05/31 01:39:55;;;;;;;7.82;4.95;;;15.80;77.40;;;;;;5114090;28;20027;-80
2023/05/31 01:42:22;;;;;;;7.20;4.72;;;15.80;77.40;;;;;;5114042;28;20030;-80
2023/05/31 01:44:49;;;;;;;8.60;4.93;;;15.80;77.70;;;;;;5113920;28;20027;-79
2023/05/31 01:47:15;;;;;;;7.35;4.32;;;15.80;77.60;;;;;;5112934;28;20024;-80
2023/05/31 01:49:42;;;;;;;7.07;4.50;;;15.80;77.60;;;;;;5113943;28;20032;-79
2023/05/31 01:52:13;;;;;;;7.53;4.75;;;15.80;77.80;;;;;;5113939;28;20028;-79
2023/05/31 01:54:39;;;;;;;7.13;4.68;;;15.70;77.80;;;;;;5114021;28;20475;-79
2023/05/31 01:57:06;;;;;;;8.43;4.60;;;15.60;77.90;;;;;;5112958;28;20035;-80
2023/05/31 01:59:37;;;;;;;6.90;4.60;;;15.60;78.00;;;;;;5113795;28;20465;-80
2023/05/31 02:02:05;;;;;;;7.78;4.75;;;15.70;78.00;;;;;;5112754;28;20047;-80
2023/05/31 02:04:30;;;;;;;7.65;4.45;;;15.60;78.10;;;;;;5113760;28;20058;-80
2023/05/31 02:06:57;;;;;;;8.38;4.90;;;15.60;78.30;;;;;;5113617;28;20115;-80
2023/05/31 02:09:23;;;;;;;7.43;4.50;;;15.60;78.70;;;;;;5113698;28;20027;-79
2023/05/31 02:11:49;;;;;;;6.75;4.57;;;15.50;78.70;;;;;;5112613;28;20050;-80
2023/05/31 02:14:15;;;;;;;7.38;4.68;;;15.50;78.80;;;;;;5113735;28;20491;-80
2023/05/31 02:16:40;;;;;;;7.68;4.63;;;15.50;78.80;;;;;;5113462;28;20039;-80
2023/05/31 02:19:06;;;;;;;7.68;4.70;;;15.50;78.80;;;;;;5113551;28;20024;-80
2023/05/31 02:21:35;;;;;;;8.95;4.97;;;15.50;79.50;;;;;;5113502;28;20089;-80
2023/05/31 02:24:01;;;;;;;7.30;4.97;;;15.50;78.70;;;;;;5113510;28;20013;-80
2023/05/31 02:26:26;;;;;;;13.00;5.20;;;15.50;78.90;;;;;;5113388;28;20028;-80
2023/05/31 02:28:52;;;;;;;8.13;4.93;;;15.50;78.90;;;;;;5113467;28;20028;-80
2023/05/31 02:31:18;;;;;;;9.90;4.93;;;15.50;79.10;;;;;;5113702;28;20054;-80
2023/05/31 02:33:43;;;;;;;6.72;4.25;;;15.40;79.10;;;;;;5117595;28;20050;-80
2023/05/31 02:36:11;;;;;;;6.93;4.20;;;15.40;79.20;;;;;;5117630;28;20024;-80
2023/05/31 02:38:36;;;;;;;8.45;5.00;;;15.40;79.20;;;;;;5117561;28;20047;-80
2023/05/31 02:41:02;;;;;;;7.95;5.15;;;15.40;79.30;;;;;;5116589;28;20028;-80
2023/05/31 02:43:28;;;;;;;8.20;5.20;;;15.40;79.50;;;;;;5117486;28;20032;-80
2023/05/31 02:45:53;;;;;;;8.90;5.25;;;15.30;79.40;;;;;;5116489;28;20032;-79
2023/05/31 02:48:19;;;;;;;8.63;5.22;;;15.30;79.30;;;;;;5117367;28;20032;-79
2023/05/31 02:50:45;;;;;;;8.50;5.13;;;15.30;79.40;;;;;;5116293;28;20092;-79
2023/05/31 02:53:10;;;;;;;10.88;5.20;;;15.30;79.60;;;;;;5116439;28;20025;-80
2023/05/31 02:55:39;;;;;;;7.35;4.38;;;15.30;79.80;;;;;;5116291;28;20036;-79
2023/05/31 02:58:06;;;;;;;9.63;4.95;;;15.20;79.70;;;;;;5117203;28;20021;-80
2023/05/31 03:00:32;;;;;;;9.23;4.97;;;15.30;79.80;;;;;;5117158;28;20028;-80
2023/05/31 03:02:58;;;;;;;7.65;4.80;;;15.20;79.90;;;;;;5117115;28;20024;-80
2023/05/31 03:05:23;;;;;;;8.68;4.90;;;15.20;79.90;;;;;;5116968;28;20046;-80
2023/05/31 03:07:49;;;;;;;8.93;5.32;;;15.20;80.00;;;;;;5117024;28;20088;-80
2023/05/31 03:10:15;;;;;;;7.38;4.68;;;15.20;80.00;;;;;;5115963;28;20024;-80
2023/05/31 03:12:40;;;;;;;8.98;5.40;;;15.20;80.10;;;;;;5115869;28;20095;-79
2023/05/31 03:15:07;;;;;;;9.32;5.07;;;15.20;80.10;;;;;;5115808;28;20108;-80
2023/05/31 03:17:32;;;;;;;9.60;5.50;;;15.20;80.30;;;;;;5116818;28;20088;-80
2023/05/31 03:19:58;;;;;;;7.68;4.80;;;15.20;80.30;;;;;;5116884;28;20032;-80
2023/05/31 03:22:25;;;;;;;8.52;5.25;;;15.10;80.30;;;;;;5115664;28;20035;-80
2023/05/31 03:24:50;;;;;;;8.50;5.25;;;15.10;80.50;;;;;;5116738;28;20371;-80
2023/05/31 03:27:16;;;;;;;8.65;5.15;;;15.10;80.50;;;;;;5116625;28;20020;-80
2023/05/31 03:29:43;;;;;;;11.00;5.80;;;15.10;80.60;;;;;;5116711;28;20032;-80
2023/05/31 03:32:08;;;;;;;9.27;5.53;;;15.00;80.70;;;;;;5115664;28;20050;-80
2023/05/31 03:34:34;;;;;;;10.15;5.30;;;15.00;80.80;;;;;;5116440;28;20463;-79
2023/05/31 03:37:01;;;;;;;10.70;5.70;;;15.00;80.60;;;;;;5116474;28;20031;-80
2023/05/31 03:39:27;;;;;;;7.90;5.13;;;15.00;80.70;;;;;;5116406;28;20035;-80
2023/05/31 03:41:52;;;;;;;9.98;5.55;;;15.00;81.00;;;;;;5116386;28;20039;-79
2023/05/31 03:44:18;;;;;;;11.23;5.88;;;15.00;80.90;;;;;;5097681;28;20100;-79
2023/05/31 03:46:43;;;;;;;13.85;5.95;;;15.00;80.90;;;;;;5115317;28;20032;-80
2023/05/31 03:49:10;;;;;;;11.23;5.45;;;15.00;80.90;;;;;;5115279;28;20048;-79
2023/05/31 03:51:36;;;;;;;10.50;5.68;;;15.00;81.10;;;;;;5115353;28;20141;-79
2023/05/31 03:54:01;;;;;;;9.13;5.70;;;15.00;81.10;;;;;;5116159;28;20020;-79
2023/05/31 03:56:27;;;;;;;10.75;5.63;;;15.00;81.10;;;;;;5115210;28;20040;-79
2023/05/31 03:58:52;;;;;;;10.57;5.97;;;14.90;81.20;;;;;;5116018;28;20103;-79
2023/05/31 04:01:18;;;;;;;10.93;5.57;;;14.90;81.30;;;;;;5115995;28;20047;-79
2023/05/31 04:03:44;;;;;;;10.38;5.82;;;14.90;81.40;;;;;;5098071;28;20127;-79
2023/05/31 04:06:10;;;;;;;9.32;5.95;;;14.80;81.60;;;;;;5115831;28;20020;-79
2023/05/31 04:08:36;;;;;;;10.30;6.00;;;14.80;81.60;;;;;;5115852;28;20028;-79
2023/05/31 04:11:02;;;;;;;11.02;5.85;;;14.80;81.80;;;;;;5115813;28;20046;-79
2023/05/31 04:13:27;;;;;;;10.20;6.07;;;14.80;81.80;;;;;;5114806;28;20034;-80
2023/05/31 04:15:53;;;;;;;11.85;5.75;;;14.90;81.80;;;;;;5115560;28;20084;-79
2023/05/31 04:18:19;;;;;;;9.85;5.90;;;14.90;81.70;;;;;;5115634;28;20024;-80
2023/05/31 04:20:44;;;;;;;13.25;6.18;;;14.90;81.80;;;;;;5114569;28;20035;-81
2023/05/31 04:23:10;;;;;;;12.57;5.95;;;14.90;81.90;;;;;;5114683;28;20039;-81
2023/05/31 04:25:36;;;;;;;11.75;6.10;;;14.90;82.00;;;;;;5115454;28;20028;-81
2023/05/31 04:28:01;;;;;;;11.05;5.97;;;14.90;82.10;;;;;;5115489;28;20058;-81
2023/05/31 04:30:27;;;;;;;12.18;6.60;;;14.80;82.20;;;;;;5114366;28;20028;-81
2023/05/31 04:32:56;;;;;;;12.30;6.45;;;14.80;82.20;;;;;;5115398;28;20035;-80
2023/05/31 04:35:22;;;;;;;12.45;6.35;;;14.80;82.30;;;;;;5115323;28;20028;-80
2023/05/31 04:37:52;;;;;;;11.52;6.45;;;14.90;82.40;;;;;;5115197;28;20038;-75
2023/05/31 04:40:20;;;;;;;12.82;5.63;;;14.80;82.40;;;;;;5115281;28;20024;-80
2023/05/31 04:42:46;;;;;;;14.00;6.35;;;14.90;82.60;;;;;;5115207;28;20024;-80
2023/05/31 04:45:11;;;;;;;12.93;7.10;;;14.90;82.80;;;;;;5115063;28;20032;-80
2023/05/31 04:47:37;;;;;;;13.90;5.63;;;14.90;83.00;;;;;;5114043;28;20039;-81
2023/05/31 04:50:03;;;;;;;14.45;6.80;;;14.90;83.10;;;;;;5114117;28;20054;-80
2023/05/31 04:52:33;;;;;;;12.45;6.38;;;14.90;83.00;;;;;;5114988;28;20024;-80
2023/05/31 04:55:00;;;;;;;11.18;6.35;;;14.90;83.20;;;;;;5114113;28;20021;-80
2023/05/31 04:57:28;;;;;;;13.38;6.82;;;14.90;83.10;;;;;;5114717;28;20020;-80
2023/05/31 04:59:56;;;;;;;12.35;6.35;;;14.90;83.20;;;;;;5114852;28;20028;-80
2023/05/31 05:02:22;;;;;;;12.63;6.93;;;14.90;83.60;;;;;;5113852;28;20028;-80
2023/05/31 05:04:48;;;;;;;13.07;6.07;;;15.00;83.70;;;;;;5114728;28;20024;-80
2023/05/31 05:07:14;;;;;;;13.82;6.63;;;15.00;83.60;;;;;;5114629;28;20107;-80
2023/05/31 05:09:40;;;;;;;14.30;6.82;;;15.00;83.70;;;;;;5114560;28;20029;-80
2023/05/31 05:12:07;;;;;;;11.50;6.30;;;15.00;84.10;;;;;;5113609;28;20017;-80
2023/05/31 05:14:33;;;;;;;11.25;6.20;;;15.00;84.10;;;;;;5113673;28;20044;-79
2023/05/31 05:16:59;;;;;;;13.50;6.95;;;15.00;84.20;;;;;;5112294;28;20051;-79
2023/05/31 05:19:24;;;;;;;18.13;6.90;;;15.10;84.20;;;;;;5114443;28;20032;-79
2023/05/31 05:21:50;;;;;;;13.13;7.00;;;15.10;84.10;;;;;;5114376;28;20026;-79
2023/05/31 05:24:16;;;;;;;16.30;7.30;;;15.20;84.00;;;;;;5114351;28;20053;-80
2023/05/31 05:26:42;;;;;;;14.45;6.90;;;15.20;85.00;;;;;;5114303;28;20024;-81
2023/05/31 05:29:07;;;;;;;14.57;6.80;;;15.20;84.10;;;;;;5114325;28;20027;-81
2023/05/31 05:31:33;;;;;;;12.57;6.82;;;15.20;84.10;;;;;;5114227;28;20506;-80
2023/05/31 05:33:59;;;;;;;16.35;7.28;;;15.20;84.00;;;;;;5113186;28;20020;-80
2023/05/31 05:36:25;;;;;;;13.38;6.82;;;15.20;84.00;;;;;;5114119;28;20039;-80
2023/05/31 05:38:50;;;;;;;16.23;6.75;;;15.20;84.00;;;;;;5114078;28;20020;-80
2023/05/31 05:41:16;;;;;;;13.57;6.65;;;15.20;84.10;;;;;;5114054;28;20024;-80
2023/05/31 05:43:42;;;;;;;14.02;6.57;;;15.30;84.00;;;;;;5114051;28;20054;-79
2023/05/31 05:46:08;;;;;;;12.65;6.50;;;15.30;84.00;;;;;;5113962;28;20032;-79
2023/05/31 05:48:33;;;;;;;12.98;6.57;;;15.40;84.10;;;;;;5113971;28;20091;-79
2023/05/31 05:50:59;;;;;;;13.07;7.13;;;15.40;84.20;;;;;;5113962;28;20051;-79
2023/05/31 05:53:25;;;;;;;16.15;7.53;;;15.40;84.20;;;;;;5112825;28;20012;-79
2023/05/31 05:55:52;;;;;;;12.55;6.65;;;15.40;84.00;;;;;;5113880;28;20028;-80
2023/05/31 05:58:18;;;;;;;15.10;6.95;;;15.40;83.90;;;;;;5113880;28;20084;-79
2023/05/31 06:00:47;;;;;;;16.60;7.00;;;15.50;84.00;;;;;;5113842;28;20032;-79
2023/05/31 06:03:14;;;;;;;14.73;6.95;;;15.50;83.90;;;;;;5112725;28;20020;-79
2023/05/31 06:05:41;;;;;;;12.50;7.03;;;15.50;83.80;;;;;;5113676;28;20043;-80
2023/05/31 06:08:12;;;;;;;14.80;7.50;;;15.50;83.90;;;;;;5113381;28;20076;-79
2023/05/31 06:10:40;;;;;;;14.90;7.00;;;15.50;83.80;;;;;;5113841;28;20027;-78
2023/05/31 06:13:06;;;;;;;12.80;6.68;;;15.60;84.80;;;;;;5112739;28;20028;-77
2023/05/31 06:15:32;;;;;;;15.23;6.88;;;15.50;84.30;;;;;;5112605;28;20044;-78
2023/05/31 06:17:59;;;;;;;18.55;6.85;;;15.50;84.10;;;;;;5113843;28;20048;-78
2023/05/31 06:20:26;;;;;;;16.55;7.78;;;15.60;84.10;;;;;;5113538;28;20077;-78
2023/05/31 06:22:52;;;;;;;15.88;7.13;;;15.60;83.90;;;;;;5113546;28;20083;-78
2023/05/31 06:25:19;;;;;;;16.08;7.70;;;15.70;83.70;;;;;;5112272;28;20021;-78
2023/05/31 06:27:45;;;;;;;12.57;6.97;;;15.80;84.40;;;;;;5112577;28;20035;-78
2023/05/31 06:30:15;;;;;;;14.65;6.68;;;15.80;83.70;;;;;;5113432;28;20024;-79
2023/05/31 06:32:40;;;;;;;19.92;7.18;;;15.80;83.90;;;;;;5112367;28;20070;-79
2023/05/31 06:35:06;;;;;;;14.23;7.38;;;15.80;83.90;;;;;;5112448;28;20028;-78
2023/05/31 06:37:32;;;;;;;15.57;7.65;;;15.80;83.90;;;;;;5095359;28;20099;-78
2023/05/31 06:39:58;;;;;;;17.83;7.60;;;15.80;84.00;;;;;;5113349;28;20084;-78
2023/05/31 06:42:24;;;;;;;12.82;7.00;;;15.90;84.00;;;;;;5113287;28;20047;-78
2023/05/31 06:44:51;;;;;;;14.95;7.20;;;16.00;83.90;;;;;;5113256;28;20043;-77
2023/05/31 06:47:17;;;;;;;15.20;6.82;;;16.00;83.90;;;;;;5113170;28;20072;-77
2023/05/31 06:49:42;;;;;;;14.50;7.32;;;16.10;83.60;;;;;;5112287;28;20023;-77
2023/05/31 06:52:23;;;;;;;13.82;6.68;;;16.10;83.50;;;;;;5112321;28;20013;-76
2023/05/31 06:58:36;;;;;;;14.73;6.88;;;16.10;83.40;;;;;;5091137;28;20033;-77
2023/05/31 07:01:14;;;;;;;18.05;7.43;;;16.20;83.30;;;;;;5031434;28;20537;-78
2023/05/31 07:03:40;;;;;;;15.32;7.15;;;16.30;83.20;;;;;;5030591;28;20093;-77
2023/05/31 07:06:05;;;;;;;13.60;7.13;;;16.30;83.20;;;;;;5106328;28;20032;-77
2023/05/31 07:08:37;;;;;;;15.38;6.85;;;16.40;83.20;;;;;;5113081;28;20035;-77
2023/05/31 07:11:06;;;;;;;18.25;7.70;;;16.40;83.10;;;;;;5113098;28;20017;-77
2023/05/31 07:13:39;;;;;;;14.38;6.63;;;16.50;83.40;;;;;;5113065;28;20024;-77
2023/05/31 07:16:05;;;;;;;11.98;6.63;;;16.60;83.10;;;;;;5111826;28;20052;-77
2023/05/31 07:18:40;;;;;;;15.85;6.90;;;16.60;82.80;;;;;;5113563;28;20540;-77
2023/05/31 07:21:08;;;;;;;15.27;6.68;;;16.70;82.60;;;;;;5115880;28;20032;-77
2023/05/31 07:23:33;;;;;;;13.90;6.35;;;16.70;82.30;;;;;;5116696;28;20054;-81
2023/05/31 07:26:01;;;;;;;14.35;6.85;;;16.80;82.10;;;;;;5098731;28;20032;-77
2023/05/31 07:28:27;;;;;;;16.42;7.47;;;16.90;82.10;;;;;;5115490;28;20016;-78
2023/05/31 07:30:53;;;;;;;12.95;6.57;;;17.00;82.10;;;;;;5116523;28;20012;-78
2023/05/31 07:33:19;;;;;;;13.85;6.65;;;17.10;81.70;;;;;;5115381;28;20028;-77
2023/05/31 07:35:45;;;;;;;16.52;7.53;;;17.10;81.60;;;;;;5098685;28;20024;-78
2023/05/31 07:38:10;;;;;;;15.85;6.97;;;17.20;81.60;;;;;;5115419;28;20064;-77
2023/05/31 07:40:36;;;;;;;13.77;6.72;;;17.30;81.50;;;;;;5098411;28;20063;-78
2023/05/31 07:43:02;;;;;;;15.57;6.82;;;17.30;81.30;;;;;;5115438;28;20024;-78
2023/05/31 07:45:27;;;;;;;14.40;6.57;;;17.40;81.20;;;;;;5115213;28;20028;-77
2023/05/31 07:47:53;;;;;;;14.68;6.60;;;17.50;81.10;;;;;;5115390;28;20016;-77
2023/05/31 07:50:19;;;;;;;12.00;6.60;;;17.50;81.10;;;;;;5115138;28;20046;-77
2023/05/31 07:52:49;;;;;;;13.80;7.28;;;17.60;80.80;;;;;;5098288;28;20087;-77
2023/05/31 07:55:17;;;;;;;22.48;10.65;;;17.70;80.70;;;;;;5115165;28;20028;-78
2023/05/31 07:57:43;;;;;;;10.68;5.80;;;17.80;80.80;;;;;;5115100;28;20016;-77
2023/05/31 08:03:31;;;;;;;13.20;6.10;;;17.90;80.10;;;;;;5116075;28;20098;-77
2023/05/31 08:05:57;;;;;;;13.75;5.97;;;18.00;80.00;;;;;;5114877;28;20032;-77
2023/05/31 08:08:23;;;;;;;11.85;6.28;;;18.10;79.90;;;;;;5114981;28;20119;-77
2023/05/31 08:10:48;;;;;;;15.05;6.68;;;18.10;80.20;;;;;;5114723;28;20016;-77
2023/05/31 08:13:14;;;;;;;12.07;5.85;;;18.20;80.30;;;;;;5115726;28;20028;-78
2023/05/31 08:15:40;;;;;;;12.70;6.38;;;18.30;80.20;;;;;;5115486;28;20048;-77
2023/05/31 08:18:05;;;;;;;11.95;5.88;;;18.40;79.60;;;;;;5114805;28;20091;-77
2023/05/31 08:20:31;;;;;;;11.73;5.97;;;18.50;79.20;;;;;;5097734;28;20028;-77
2023/05/31 08:23:00;;;;;;;12.82;5.25;;;18.60;78.90;;;;;;5081028;28;20032;-77
2023/05/31 08:25:26;;;;;;;14.77;6.60;;;18.60;79.30;;;;;;5097521;28;20084;-77
2023/05/31 08:27:51;;;;;;;10.70;5.38;;;18.70;78.80;;;;;;5115562;28;20028;-77
2023/05/31 08:30:17;;;;;;;14.20;5.75;;;18.80;78.70;;;;;;5114255;28;20028;-77
2023/05/31 08:32:43;;;;;;;12.77;5.78;;;18.90;78.40;;;;;;5114345;28;20387;-77
2023/05/31 08:35:09;;;;;;;11.18;5.30;;;18.90;77.70;;;;;;5115205;28;20031;-77
2023/05/31 08:37:38;;;;;;;13.52;5.88;;;19.00;77.90;;;;;;5097495;28;20491;-77
2023/05/31 08:40:05;;;;;;;10.80;5.32;;;19.10;78.00;;;;;;5115400;28;20028;-76
2023/05/31 08:43:09;;;;;;;17.98;6.20;;;19.20;77.70;;;;;;5097350;28;20020;-77
2023/05/31 08:45:35;;;;;;;12.40;5.63;;;19.30;77.30;;;;;;5115135;28;20089;-78
2023/05/31 08:48:28;;;;;;;12.15;5.72;;;19.30;76.90;;;;;;5115133;28;20028;-78
2023/05/31 08:50:55;;;;;;;12.40;6.07;;;19.40;76.60;;;;;;5105478;28;20032;-79
2023/05/31 08:53:24;;;;;;;16.80;6.32;;;19.40;77.40;;;;;;5114980;28;20031;-78
2023/05/31 08:55:52;;;;;;;31.52;16.15;;;19.50;76.50;;;;;;5114946;28;20020;-78
2023/05/31 08:58:19;;;;;;;203.25;101.18;;;19.50;76.40;;;;;;5114913;28;20031;-78
2023/05/31 09:00:48;;;;;;;22.67;11.75;;;19.60;76.40;;;;;;5114847;28;20054;-78
2023/05/31 09:03:19;;;;;;;12.35;5.82;;;19.70;76.30;;;;;;5114809;28;20035;-79
2023/05/31 09:05:44;;;;;;;11.77;6.00;;;19.70;75.30;;;;;;5113747;28;20092;-79
2023/05/31 09:08:11;;;;;;;10.15;5.68;;;19.80;75.20;;;;;;5114679;28;20028;-78
2023/05/31 09:10:37;;;;;;;12.70;6.18;;;19.90;75.80;;;;;;5114591;28;20030;-78
2023/05/31 09:13:04;;;;;;;11.30;6.15;;;19.90;74.70;;;;;;5113561;28;20028;-79
2023/05/31 09:15:31;;;;;;;14.30;6.00;;;20.00;74.80;;;;;;5113271;28;20104;-79
2023/05/31 09:17:57;;;;;;;10.40;5.57;;;20.10;74.60;;;;;;5113473;28;20024;-78
2023/05/31 09:20:34;;;;;;;11.95;5.88;;;20.10;74.90;;;;;;5114457;28;20036;-79
2023/05/31 09:23:06;;;;;;;10.13;5.82;;;20.20;75.00;;;;;;5114420;28;20020;-78
2023/05/31 09:25:44;;;;;;;;;;;20.30;74.40;;;;;;5113662;28;20091;-79
2023/05/31 09:28:20;;;;;;;14.68;6.43;;;20.50;74.00;;;;;;5113976;28;19938;-78
2023/05/31 09:31:43;;;;;;;12.48;5.75;;;20.50;74.40;;;;;;5115254;28;20020;-79
2023/05/31 09:34:56;;;;;;;10.95;5.20;;;20.60;73.20;;;;;;5052281;28;20032;-79
2023/05/31 09:37:23;;;;;;;11.23;5.60;;;20.60;73.20;;;;;;5113767;28;20030;-79
2023/05/31 09:39:58;;;;;;;12.05;4.97;;;20.70;73.10;;;;;;5113549;28;20020;-79
2023/05/31 09:42:28;;;;;;;14.48;5.43;;;20.80;72.10;;;;;;5113183;28;20066;-79
2023/05/31 09:44:54;;;;;;;11.88;5.22;;;20.90;72.30;;;;;;5114005;28;20028;-79
2023/05/31 09:47:27;;;;;;;12.73;4.93;;;21.00;71.60;;;;;;5113959;28;20372;-78
2023/05/31 09:49:54;;;;;;;14.32;5.47;;;21.10;71.30;;;;;;5113916;28;20046;-79
2023/05/31 09:52:27;;;;;;;11.50;5.10;;;21.20;71.10;;;;;;5113043;28;20020;-82
2023/05/31 09:54:55;;;;;;;11.90;5.10;;;21.30;70.70;;;;;;5113952;28;20041;-81
2023/05/31 09:57:30;;;;;;;18.95;5.47;;;21.40;70.00;;;;;;5096060;28;20035;-81
2023/05/31 09:59:59;;;;;;;10.27;4.70;;;21.40;70.00;;;;;;5112997;28;20122;-78
2023/05/31 10:02:27;;;;;;;10.57;4.68;;;21.50;69.90;;;;;;5112797;28;20061;-77
2023/05/31 10:04:55;;;;;;;17.73;5.50;;;21.60;69.60;;;;;;5112517;28;20035;-76
2023/05/31 10:07:22;;;;;;;13.77;5.20;;;21.70;69.10;;;;;;5112755;28;20028;-77
2023/05/31 10:09:47;;;;;;;8.90;4.20;;;21.70;68.80;;;;;;5113736;28;20020;-76
2023/05/31 10:12:17;;;;;;;8.43;4.20;;;21.80;68.80;;;;;;5112789;28;20149;-77
2023/05/31 10:14:49;;;;;;;37.88;7.07;;;21.90;68.90;;;;;;5112609;28;20016;-79
2023/05/31 10:17:20;;;;;;;8.27;4.55;;;22.00;67.90;;;;;;5113548;28;20055;-77
2023/05/31 10:19:53;;;;;;;9.07;4.35;;;22.10;67.50;;;;;;5113758;28;20027;-77
2023/05/31 10:22:20;;;;;;;9.02;3.72;;;22.20;67.10;;;;;;5112587;28;20046;-78
2023/05/31 10:24:59;;;;;;;10.13;3.33;;;22.20;66.50;;;;;;5112489;28;20028;-77
2023/05/31 10:27:31;;;;;;;10.18;4.38;;;22.30;64.60;;;;;;5113467;28;20035;-77
2023/05/31 10:30:04;;;;;;;7.18;3.58;;;22.40;65.30;;;;;;5113489;28;20024;-77
2023/05/31 10:32:33;;;;;;;8.45;3.75;;;22.40;65.10;;;;;;5112495;28;20024;-77
2023/05/31 10:35:00;;;;;;;11.55;3.90;;;22.50;64.90;;;;;;5113369;28;20027;-76
2023/05/31 10:37:26;;;;;;;9.27;3.90;;;22.60;65.40;;;;;;5113383;28;20020;-77
2023/05/31 10:40:06;;;;;;;7.75;3.55;;;22.70;64.80;;;;;;5113401;28;20097;-77
2023/05/31 10:42:56;;;;;;;7.13;2.97;;;22.80;64.50;;;;;;5113435;28;20046;-77
2023/05/31 10:45:27;;;;;;;5.07;2.80;;;22.80;63.90;;;;;;5113286;28;20023;-77
2023/05/31 10:48:02;;;;;;;5.57;3.13;;;22.90;63.40;;;;;;5113330;28;20024;-77
2023/05/31 10:50:27;;;;;;;6.57;3.80;;;23.00;63.10;;;;;;5112335;28;20080;-77
2023/05/31 10:53:09;;;;;;;9.02;3.65;;;22.90;62.50;;;;;;5113623;28;20039;-77
2023/05/31 10:55:43;;;;;;;7.97;3.28;;;23.00;61.30;;;;;;5116424;28;20023;-77
2023/05/31 10:58:43;;;;;;;6.68;3.47;;;23.00;62.50;;;;;;5116218;28;20028;-77
2023/05/31 11:01:21;;;;;;;7.32;3.35;;;23.10;62.60;;;;;;5116168;28;20020;-77
2023/05/31 11:03:54;;;;;;;7.45;3.33;;;23.10;62.50;;;;;;5117331;28;20028;-77
2023/05/31 11:06:23;;;;;;;6.65;3.38;;;23.20;62.40;;;;;;5116183;28;20395;-77
2023/05/31 11:09:16;;;;;;;6.15;3.35;;;23.30;61.30;;;;;;5099159;28;20031;-77
2023/05/31 11:11:42;;;;;;;;;;;23.40;62.40;;;;;;5114138;28;20032;-77
2023/05/31 11:14:29;;;;;;;6.60;2.63;;;23.40;61.20;;;;;;5116945;28;19912;-78
2023/05/31 11:16:59;;;;;;;6.57;2.55;;;23.40;59.50;;;;;;5116530;28;20060;-77
2023/05/31 11:19:30;;;;;;;4.63;2.30;;;23.40;60.60;;;;;;5117015;28;20055;-77
2023/05/31 11:21:59;;;;;;;5.13;2.28;;;23.50;59.80;;;;;;5116796;28;20039;-77
2023/05/31 11:24:48;;;;;;;6.82;2.45;;;23.60;57.70;;;;;;5116870;28;20032;-77
2023/05/31 11:27:14;;;;;;;7.15;2.38;;;23.70;56.90;;;;;;5116690;28;20046;-77
2023/05/31 11:29:51;;;;;;;6.18;2.78;;;23.80;57.00;;;;;;5116681;28;20051;-77
2023/05/31 11:32:41;;;;;;;5.18;2.70;;;23.90;56.10;;;;;;5116791;28;20032;-77
2023/05/31 11:35:19;;;;;;;6.65;2.60;;;23.90;55.70;;;;;;5102638;28;20025;-77
2023/05/31 11:37:45;;;;;;;8.48;2.28;;;24.00;55.40;;;;;;5116605;28;20017;-77
2023/05/31 11:40:14;;;;;;;7.43;2.47;;;24.00;54.00;;;;;;5115521;28;20096;-77
2023/05/31 11:42:42;;;;;;;8.98;2.90;;;24.00;53.90;;;;;;5116403;28;20016;-77
2023/05/31 11:45:13;;;;;;;7.80;2.67;;;24.10;55.40;;;;;;5116279;28;20016;-77
2023/05/31 11:48:08;;;;;;;6.53;2.60;;;24.20;55.80;;;;;;5116551;28;20020;-77
2023/05/31 11:50:34;;;;;;;4.35;2.25;;;24.30;56.00;;;;;;5116408;28;20050;-77
2023/05/31 11:53:03;;;;;;;4.40;2.00;;;24.50;55.20;;;;;;5116229;28;20028;-76
2023/05/31 11:55:32;;;;;;;5.78;2.17;;;24.60;55.30;;;;;;5116158;28;20020;-77
2023/05/31 11:57:59;;;;;;;3.58;2.03;;;24.60;54.50;;;;;;5116112;28;20032;-78
2023/05/31 12:00:25;;;;;;;5.05;2.40;;;24.70;53.60;;;;;;5115044;28;20091;-77
2023/05/31 12:02:53;;;;;;;7.07;2.35;;;24.70;52.70;;;;;;5116067;28;20021;-79
2023/05/31 12:05:19;;;;;;;7.10;2.55;;;24.70;50.50;;;;;;5115333;28;20016;-78
2023/05/31 12:07:45;;;;;;;8.70;2.70;;;24.70;49.70;;;;;;5115924;28;20032;-79
2023/05/31 12:10:11;;;;;;;6.72;2.55;;;24.70;52.70;;;;;;5115910;28;20017;-79
2023/05/31 12:12:40;;;;;;;7.05;2.67;;;24.70;51.40;;;;;;5114773;28;20031;-79
2023/05/31 12:15:07;;;;;;;4.43;2.00;;;24.80;51.10;;;;;;5115767;28;20020;-79
2023/05/31 12:17:33;;;;;;;6.47;1.95;;;24.80;51.00;;;;;;5097632;28;20044;-79
2023/05/31 12:20:04;;;;;;;4.25;2.15;;;24.90;51.00;;;;;;5115711;28;20044;-79
2023/05/31 12:22:30;;;;;;;8.95;2.95;;;25.00;52.20;;;;;;5115750;28;20025;-79
2023/05/31 12:24:56;;;;;;;5.00;2.40;;;25.10;51.90;;;;;;5115621;28;20030;-78
2023/05/31 12:27:27;;;;;;;5.10;2.33;;;25.20;50.80;;;;;;5114604;28;20032;-78
2023/05/31 12:30:03;;;;;;;4.78;2.45;;;25.20;51.50;;;;;;5114529;28;20062;-78
2023/05/31 12:32:31;;;;;;;6.47;2.58;;;25.20;51.60;;;;;;5115606;28;20075;-78
2023/05/31 12:35:07;;;;;;;5.53;2.38;;;25.20;50.20;;;;;;5114324;28;20024;-78
2023/05/31 12:37:35;;;;;;;6.72;2.47;;;25.30;50.60;;;;;;5115410;28;20569;-79
2023/05/31 12:40:27;;;;;;;6.45;2.53;;;25.40;50.70;;;;;;5115293;28;20024;-78
2023/05/31 12:43:01;;;;;;;7.40;2.78;;;25.50;50.90;;;;;;5084178;28;20503;-79
2023/05/31 12:45:27;;;;;;;6.72;2.60;;;25.50;51.30;;;;;;5115101;28;20059;-78
2023/05/31 12:47:57;;;;;;;5.40;2.60;;;25.60;49.40;;;;;;5115279;28;20035;-79
2023/05/31 12:50:27;;;;;;;6.55;2.47;;;25.50;48.70;;;;;;5114219;28;20028;-78
2023/05/31 12:52:57;;;;;;;5.72;2.30;;;25.50;49.90;;;;;;5115092;28;20024;-78
2023/05/31 12:55:23;;;;;;;5.47;2.55;;;25.70;49.90;;;;;;5115019;28;20016;-78
2023/05/31 12:57:48;;;;;;;6.43;2.50;;;25.70;49.90;;;;;;5114982;28;20016;-78
2023/05/31 13:00:14;;;;;;;6.40;2.42;;;25.70;49.40;;;;;;5114046;28;20028;-77